Time;durP1;ratioP1;P1;durP2;ratioP2;P2;SDS_P1;SDS_P2;PMS_P1;PMS_P2;Temp;Humidity;BMP_temperature;BMP_pressure;BME280_temperature;BME280_humidity;BME280_pressure;Samples;Min_cycle;Max_cycle;Signal;HPM_P1;HPM_P2
2022/09/08 00:01:54;;;;;;;6.13;5.00;;;;;;;;;;5050190;28;20060;-65
2022/09/08 00:04:39;;;;;;;6.00;5.40;;;;;;;;;;5044194;28;20155;-64
2022/09/08 00:07:25;;;;;;;6.18;4.40;;;;;;;;;;5041851;28;20044;-65
2022/09/08 00:10:11;;;;;;;7.15;5.13;;;;;;;;;;5040942;28;20095;-64
2022/09/08 00:12:55;;;;;;;6.55;4.93;;;;;;;;;;5038355;28;20041;-66
2022/09/08 00:15:40;;;;;;;7.35;5.20;;;;;;;;;;5047702;28;20040;-64
2022/09/08 00:18:24;;;;;;;6.82;5.20;;;;;;;;;;5035041;28;20092;-65
2022/09/08 00:21:10;;;;;;;8.45;5.38;;;;;;;;;;5034332;28;20029;-64
2022/09/08 00:23:54;;;;;;;6.45;5.03;;;;;;;;;;5048830;28;20491;-64
2022/09/08 00:26:39;;;;;;;7.57;5.22;;;;;;;;;;5033943;28;20578;-64
2022/09/08 00:29:23;;;;;;;6.80;4.88;;;;;;;;;;5039887;28;20476;-65
2022/09/08 00:32:08;;;;;;;6.97;5.90;;;;;;;;;;5048251;28;20060;-65
2022/09/08 00:34:52;;;;;;;6.60;5.15;;;;;;;;;;5042760;28;20437;-65
2022/09/08 00:37:37;;;;;;;6.93;5.72;;;;;;;;;;5034519;28;20098;-66
2022/09/08 00:40:22;;;;;;;7.72;6.20;;;;;;;;;;5050593;28;20040;-65
2022/09/08 00:43:07;;;;;;;6.95;5.30;;;;;;;;;;5046694;28;20116;-64
2022/09/08 00:45:51;;;;;;;10.93;6.40;;;;;;;;;;5048411;28;20389;-65
2022/09/08 00:48:43;;;;;;;13.05;6.55;;;;;;;;;;5046052;28;20106;-64
2022/09/08 00:51:27;;;;;;;7.35;6.00;;;;;;;;;;5038224;28;20477;-65
2022/09/08 00:54:15;;;;;;;9.00;6.65;;;;;;;;;;5039319;28;20067;-65
2022/09/08 00:56:59;;;;;;;13.93;6.95;;;;;;;;;;5046353;28;20037;-64
2022/09/08 00:59:45;;;;;;;8.25;6.15;;;;;;;;;;5060406;28;20071;-64
2022/09/08 01:02:30;;;;;;;9.50;7.53;;;;;;;;;;5035009;28;20381;-64
2022/09/08 01:05:18;;;;;;;11.07;6.65;;;;;;;;;;5049235;28;20033;-65
2022/09/08 01:14:46;;;;;;;12.05;8.73;;;;;;;;;;5041330;28;20063;-64
2022/09/08 01:17:30;;;;;;;13.88;9.05;;;;;;;;;;5048118;28;20447;-66
2022/09/08 01:20:16;;;;;;;12.98;9.05;;;;;;;;;;5042296;28;20112;-65
2022/09/08 01:23:10;;;;;;;11.23;9.35;;;;;;;;;;5041256;28;20037;-65
2022/09/08 01:26:13;;;;;;;11.23;8.00;;;;;;;;;;5035053;28;20038;-65
2022/09/08 01:28:59;;;;;;;12.40;9.18;;;;;;;;;;5036227;28;20123;-65
2022/09/08 01:31:45;;;;;;;13.38;9.48;;;;;;;;;;5029949;28;20476;-65
2022/09/08 01:34:37;;;;;;;13.35;10.07;;;;;;;;;;5035621;28;20374;-65
2022/09/08 01:37:22;;;;;;;11.65;9.65;;;;;;;;;;5039030;28;20108;-67
2022/09/08 01:40:07;;;;;;;12.70;9.05;;;;;;;;;;5042918;28;20216;-65
2022/09/08 01:42:51;;;;;;;10.55;9.32;;;;;;;;;;5039132;28;20040;-65
2022/09/08 01:45:36;;;;;;;11.20;9.75;;;;;;;;;;5052989;28;20388;-65
2022/09/08 01:48:20;;;;;;;11.57;9.88;;;;;;;;;;5035431;28;20397;-64
2022/09/08 01:51:06;;;;;;;12.93;9.52;;;;;;;;;;5033119;28;20048;-64
2022/09/08 01:53:51;;;;;;;12.50;10.07;;;;;;;;;;5047257;28;20071;-65
2022/09/08 01:56:36;;;;;;;14.35;10.32;;;;;;;;;;5057075;28;20060;-65
2022/09/08 01:59:21;;;;;;;12.63;10.45;;;;;;;;;;5048050;28;20091;-65
2022/09/08 02:02:05;;;;;;;15.52;11.68;;;;;;;;;;5036850;28;20038;-65
2022/09/08 02:04:50;;;;;;;15.48;9.82;;;;;;;;;;5049769;28;20040;-65
2022/09/08 02:07:37;;;;;;;15.27;11.27;;;;;;;;;;5047578;28;20513;-65
2022/09/08 02:10:22;;;;;;;15.65;12.68;;;;;;;;;;5030701;28;20091;-65
2022/09/08 02:13:07;;;;;;;13.98;10.60;;;;;;;;;;5044176;28;20098;-65
2022/09/08 02:15:56;;;;;;;14.95;11.38;;;;;;;;;;5042499;28;20041;-64
2022/09/08 02:18:41;;;;;;;14.13;11.75;;;;;;;;;;5039104;28;20047;-64
2022/09/08 02:21:27;;;;;;;15.40;12.63;;;;;;;;;;5044177;28;20044;-66
2022/09/08 02:24:11;;;;;;;15.00;12.38;;;;;;;;;;5035192;28;20418;-64
2022/09/08 02:26:56;;;;;;;17.13;12.18;;;;;;;;;;5043753;28;20115;-65
2022/09/08 02:29:40;;;;;;;16.55;13.00;;;;;;;;;;5052418;28;20112;-65
2022/09/08 02:32:24;;;;;;;14.10;11.60;;;;;;;;;;5043813;28;20078;-67
2022/09/08 02:35:09;;;;;;;16.83;13.10;;;;;;;;;;5049899;28;20060;-63
2022/09/08 02:37:53;;;;;;;16.52;12.82;;;;;;;;;;5066473;28;20048;-64
2022/09/08 02:40:39;;;;;;;15.52;12.32;;;;;;;;;;5044937;28;20118;-63
2022/09/08 02:43:24;;;;;;;13.75;11.65;;;;;;;;;;5050402;28;20511;-63
2022/09/08 02:46:09;;;;;;;15.95;12.02;;;;;;;;;;5041301;28;20072;-64
2022/09/08 02:48:53;;;;;;;14.52;12.25;;;;;;;;;;5044787;28;20041;-63
2022/09/08 02:51:38;;;;;;;17.00;12.60;;;;;;;;;;5045993;28;20060;-65
2022/09/08 02:54:23;;;;;;;17.95;12.63;;;;;;;;;;5038403;28;20110;-64
2022/09/08 02:57:07;;;;;;;13.90;10.85;;;;;;;;;;5048759;28;20643;-65
2022/09/08 02:59:51;;;;;;;16.48;12.25;;;;;;;;;;5047457;28;20476;-64
2022/09/08 03:02:36;;;;;;;18.40;12.13;;;;;;;;;;5048773;28;20450;-64
2022/09/08 03:05:21;;;;;;;15.15;11.45;;;;;;;;;;5050866;28;20116;-64
2022/09/08 03:08:08;;;;;;;15.13;11.48;;;;;;;;;;5042468;28;20096;-65
2022/09/08 03:10:52;;;;;;;15.23;11.88;;;;;;;;;;5044394;28;20091;-63
2022/09/08 03:13:39;;;;;;;15.55;11.52;;;;;;;;;;5042902;28;20049;-63
2022/09/08 03:16:24;;;;;;;15.02;11.40;;;;;;;;;;5041575;28;20032;-64
2022/09/08 03:19:10;;;;;;;16.52;12.52;;;;;;;;;;5049739;28;20065;-63
2022/09/08 03:21:54;;;;;;;15.98;11.45;;;;;;;;;;5042137;28;20044;-64
2022/09/08 03:24:39;;;;;;;17.15;11.55;;;;;;;;;;5044566;28;20057;-65
2022/09/08 03:27:23;;;;;;;18.33;12.32;;;;;;;;;;5038811;28;20064;-64
2022/09/08 03:30:09;;;;;;;15.05;11.68;;;;;;;;;;5031761;28;20034;-63
2022/09/08 03:32:54;;;;;;;13.80;10.90;;;;;;;;;;5040993;28;20040;-63
2022/09/08 03:35:38;;;;;;;14.13;11.80;;;;;;;;;;5040679;28;20129;-64
2022/09/08 03:38:22;;;;;;;13.70;12.23;;;;;;;;;;5044308;28;20057;-63
2022/09/08 03:41:08;;;;;;;18.75;12.05;;;;;;;;;;5043191;28;20091;-64
2022/09/08 03:43:52;;;;;;;15.80;13.00;;;;;;;;;;5037876;28;20080;-64
2022/09/08 03:46:37;;;;;;;15.48;11.88;;;;;;;;;;5050175;28;20045;-64
2022/09/08 03:49:21;;;;;;;14.70;12.43;;;;;;;;;;5046430;28;20116;-64
2022/09/08 03:52:07;;;;;;;15.85;11.88;;;;;;;;;;5045991;28;20041;-64
2022/09/08 03:54:52;;;;;;;16.25;11.63;;;;;;;;;;5049824;28;20120;-64
2022/09/08 03:57:37;;;;;;;14.88;12.57;;;;;;;;;;5037553;28;20047;-64
2022/09/08 04:00:22;;;;;;;16.27;13.80;;;;;;;;;;5041761;28;20427;-64
2022/09/08 04:03:07;;;;;;;14.10;12.20;;;;;;;;;;5049193;28;20115;-65
2022/09/08 04:05:52;;;;;;;15.02;12.48;;;;;;;;;;5037554;28;20597;-66
2022/09/08 04:08:36;;;;;;;16.27;12.27;;;;;;;;;;5047712;28;20139;-66
2022/09/08 04:11:21;;;;;;;15.00;12.10;;;;;;;;;;5030475;28;20041;-68
2022/09/08 04:14:05;;;;;;;17.05;12.85;;;;;;;;;;5056133;28;20041;-66
2022/09/08 04:16:49;;;;;;;16.70;12.90;;;;;;;;;;5047895;28;20060;-67
2022/09/08 04:19:34;;;;;;;13.32;11.55;;;;;;;;;;5053778;28;20094;-63
2022/09/08 04:22:20;;;;;;;16.83;12.30;;;;;;;;;;5031752;28;20033;-63
2022/09/08 04:25:05;;;;;;;15.00;12.50;;;;;;;;;;5031739;28;20029;-66
2022/09/08 04:27:49;;;;;;;15.70;12.05;;;;;;;;;;5030935;28;20105;-66
2022/09/08 04:30:37;;;;;;;17.88;13.77;;;;;;;;;;5030767;28;20057;-66
2022/09/08 04:33:22;;;;;;;16.15;13.00;;;;;;;;;;5035574;28;20131;-65
2022/09/08 04:36:11;;;;;;;18.98;13.73;;;;;;;;;;5052404;28;20043;-68
2022/09/08 04:38:57;;;;;;;15.57;12.95;;;;;;;;;;5065186;28;20265;-67
2022/09/08 04:41:42;;;;;;;16.67;12.38;;;;;;;;;;5066176;28;20225;-67
2022/09/08 04:44:26;;;;;;;17.42;12.35;;;;;;;;;;5076627;28;20572;-67
2022/09/08 04:47:11;;;;;;;15.63;12.50;;;;;;;;;;5046558;28;20199;-67
2022/09/08 04:49:55;;;;;;;15.18;12.77;;;;;;;;;;5064172;28;20055;-66
2022/09/08 04:52:40;;;;;;;17.42;12.65;;;;;;;;;;5046460;28;20048;-67
2022/09/08 04:55:25;;;;;;;16.75;12.00;;;;;;;;;;5055073;28;20057;-66
2022/09/08 04:58:10;;;;;;;15.80;12.73;;;;;;;;;;5038382;28;20126;-65
2022/09/08 05:00:54;;;;;;;18.08;12.73;;;;;;;;;;5031235;28;20057;-65
2022/09/08 05:03:40;;;;;;;15.38;12.35;;;;;;;;;;5050646;28;20067;-66
2022/09/08 05:06:25;;;;;;;14.43;11.73;;;;;;;;;;5049508;28;20049;-67
2022/09/08 05:09:11;;;;;;;17.80;12.73;;;;;;;;;;5033773;28;20041;-65
2022/09/08 05:11:55;;;;;;;15.35;12.05;;;;;;;;;;5038649;28;20456;-66
2022/09/08 05:14:40;;;;;;;17.77;12.60;;;;;;;;;;5031913;28;20396;-66
2022/09/08 05:17:24;;;;;;;15.60;12.63;;;;;;;;;;5047630;28;20749;-65
2022/09/08 05:20:09;;;;;;;17.80;11.93;;;;;;;;;;5037833;28;20037;-66
2022/09/08 05:22:53;;;;;;;17.02;12.05;;;;;;;;;;5043498;28;20480;-65
2022/09/08 05:25:38;;;;;;;16.38;13.02;;;;;;;;;;5034185;28;20057;-64
2022/09/08 05:28:26;;;;;;;15.52;12.20;;;;;;;;;;5027183;28;20042;-65
2022/09/08 05:31:15;;;;;;;16.65;11.65;;;;;;;;;;5049434;28;20113;-66
2022/09/08 05:34:01;;;;;;;18.23;13.02;;;;;;;;;;5044572;28;20060;-66
2022/09/08 05:36:46;;;;;;;15.10;12.18;;;;;;;;;;5034557;28;20080;-67
2022/09/08 05:39:30;;;;;;;16.55;12.98;;;;;;;;;;5043681;28;20037;-66
2022/09/08 05:42:15;;;;;;;17.55;12.85;;;;;;;;;;5048863;28;20049;-67
2022/09/08 05:45:01;;;;;;;16.77;12.50;;;;;;;;;;5047325;28;20052;-67
2022/09/08 05:47:45;;;;;;;17.33;13.13;;;;;;;;;;5045029;28;20120;-65
2022/09/08 05:50:34;;;;;;;15.73;12.60;;;;;;;;;;5049246;28;20037;-66
2022/09/08 05:53:18;;;;;;;16.08;12.02;;;;;;;;;;5036614;28;20059;-66
2022/09/08 05:56:05;;;;;;;14.10;11.82;;;;;;;;;;5041296;28;20036;-66
2022/09/08 05:58:53;;;;;;;16.67;13.18;;;;;;;;;;5026313;28;20128;-66
2022/09/08 06:01:38;;;;;;;17.17;13.32;;;;;;;;;;5037569;28;20065;-65
2022/09/08 06:04:23;;;;;;;14.48;12.40;;;;;;;;;;5030875;28;20122;-65
2022/09/08 06:07:07;;;;;;;14.85;11.57;;;;;;;;;;5029670;28;20037;-67
2022/09/08 06:09:52;;;;;;;15.52;12.45;;;;;;;;;;5029797;28;20112;-66
2022/09/08 06:12:37;;;;;;;17.00;13.10;;;;;;;;;;5021189;28;20052;-66
2022/09/08 06:15:22;;;;;;;18.58;11.60;;;;;;;;;;5025502;28;20067;-66
2022/09/08 06:18:06;;;;;;;15.13;11.63;;;;;;;;;;5029394;28;20092;-65
2022/09/08 06:20:51;;;;;;;15.57;11.55;;;;;;;;;;5019657;28;20052;-66
2022/09/08 06:23:37;;;;;;;17.05;12.23;;;;;;;;;;5028880;28;20051;-66
2022/09/08 06:26:26;;;;;;;16.13;11.30;;;;;;;;;;5031389;28;20049;-65
2022/09/08 06:29:29;;;;;;;16.33;12.02;;;;;;;;;;5038087;28;20048;-66
2022/09/08 06:32:13;;;;;;;14.55;11.02;;;;;;;;;;5041992;28;20120;-66
2022/09/08 06:35:05;;;;;;;16.85;12.63;;;;;;;;;;5059772;28;20166;-67
2022/09/08 06:37:51;;;;;;;13.30;10.90;;;;;;;;;;5051244;28;20538;-66
2022/09/08 06:40:42;;;;;;;13.70;9.63;;;;;;;;;;5051370;28;20904;-67
2022/09/08 06:43:41;;;;;;;15.27;10.18;;;;;;;;;;5051173;28;20108;-66
2022/09/08 06:46:26;;;;;;;11.30;9.52;;;;;;;;;;5036297;28;20120;-66
2022/09/08 06:49:12;;;;;;;14.32;10.68;;;;;;;;;;5052067;28;20041;-66
2022/09/08 06:52:08;;;;;;;15.57;10.77;;;;;;;;;;5046179;28;20059;-67
2022/09/08 06:54:52;;;;;;;12.30;9.80;;;;;;;;;;5051773;28;20068;-66
2022/09/08 06:57:36;;;;;;;13.90;10.68;;;;;;;;;;5040912;28;20068;-66
2022/09/08 07:00:23;;;;;;;14.10;9.98;;;;;;;;;;5038821;28;20036;-65
2022/09/08 07:03:26;;;;;;;12.73;9.48;;;;;;;;;;5073139;28;20124;-66
2022/09/08 07:06:10;;;;;;;12.48;9.13;;;;;;;;;;5032879;28;20064;-67
2022/09/08 07:09:07;;;;;;;10.93;8.30;;;;;;;;;;5032404;28;20037;-66
2022/09/08 07:11:59;;;;;;;13.82;9.20;;;;;;;;;;5033982;28;20116;-66
2022/09/08 07:14:56;;;;;;;12.70;8.93;;;;;;;;;;5042295;28;20037;-66
2022/09/08 07:17:44;;;;;;;10.90;8.02;;;;;;;;;;5048479;28;20118;-66
2022/09/08 07:20:28;;;;;;;12.88;9.23;;;;;;;;;;5049129;28;20040;-66
2022/09/08 07:23:20;;;;;;;10.77;8.75;;;;;;;;;;5048029;28;20107;-67
2022/09/08 07:26:04;;;;;;;;;;;;;;;;;;5054998;28;20033;-67
2022/09/08 07:28:51;;;;;;;15.45;10.55;;;;;;;;;;5045192;28;19916;-68
2022/09/08 07:31:39;;;;;;;13.95;10.13;;;;;;;;;;5047379;28;20135;-66
2022/09/08 07:34:28;;;;;;;13.98;8.82;;;;;;;;;;5051050;28;20133;-66
2022/09/08 07:37:14;;;;;;;13.77;10.60;;;;;;;;;;5037895;28;20167;-67
2022/09/08 07:40:00;;;;;;;13.52;9.95;;;;;;;;;;5050507;28;20039;-67
2022/09/08 07:42:53;;;;;;;10.95;8.90;;;;;;;;;;5050653;28;20510;-67
2022/09/08 07:45:51;;;;;;;12.70;9.30;;;;;;;;;;5042313;28;20395;-67
2022/09/08 07:48:36;;;;;;;12.35;10.02;;;;;;;;;;5045901;28;20476;-67
2022/09/08 07:51:24;;;;;;;13.27;9.75;;;;;;;;;;5047825;28;20460;-67
2022/09/08 07:54:08;;;;;;;11.73;9.52;;;;;;;;;;5048088;28;20045;-68
2022/09/08 07:56:58;;;;;;;12.23;9.25;;;;;;;;;;5040055;28;20036;-67
2022/09/08 07:59:51;;;;;;;13.60;9.70;;;;;;;;;;5050223;28;20119;-68
2022/09/08 08:02:36;;;;;;;12.45;8.52;;;;;;;;;;5033994;28;20033;-68
2022/09/08 08:05:33;;;;;;;8.52;7.47;;;;;;;;;;5045107;28;20029;-68
2022/09/08 08:08:26;;;;;;;15.27;8.38;;;;;;;;;;5031836;28;20045;-68
2022/09/08 08:11:15;;;;;;;11.77;8.05;;;;;;;;;;5047815;28;20045;-67
2022/09/08 08:14:19;;;;;;;10.77;7.28;;;;;;;;;;5046387;28;20388;-67
2022/09/08 08:17:03;;;;;;;15.50;7.35;;;;;;;;;;5046137;28;20051;-67
2022/09/08 08:19:47;;;;;;;7.43;6.35;;;;;;;;;;5049129;28;20069;-66
2022/09/08 08:22:40;;;;;;;8.70;6.22;;;;;;;;;;5033193;28;20049;-67
2022/09/08 08:25:25;;;;;;;8.88;6.85;;;;;;;;;;5043078;28;20038;-67
2022/09/08 08:28:12;;;;;;;12.05;7.10;;;;;;;;;;5047109;28;20040;-67
2022/09/08 08:31:04;;;;;;;10.07;6.30;;;;;;;;;;5049492;28;20033;-67
2022/09/08 08:33:51;;;;;;;13.93;6.18;;;;;;;;;;5045983;28;20495;-68
2022/09/08 08:36:39;;;;;;;9.80;6.03;;;;;;;;;;5047547;28;20087;-68
2022/09/08 08:39:24;;;;;;;10.27;6.05;;;;;;;;;;5041658;28;20088;-66
2022/09/08 08:42:29;;;;;;;8.73;5.88;;;;;;;;;;5038639;28;20499;-68
2022/09/08 08:49:03;;;;;;;9.15;5.03;;;;;;;;;;5047551;28;20456;-68
2022/09/08 08:51:49;;;;;;;7.28;5.05;;;;;;;;;;5039832;28;20120;-67
2022/09/08 08:54:37;;;;;;;8.27;5.47;;;;;;;;;;5044600;28;20048;-67
2022/09/08 08:57:30;;;;;;;7.22;5.43;;;;;;;;;;5047677;28;20037;-67
2022/09/08 09:00:20;;;;;;;9.07;5.55;;;;;;;;;;5046718;28;20464;-68
2022/09/08 09:03:04;;;;;;;;;;;;;;;;;;5042227;28;20037;-68
2022/09/08 09:05:54;;;;;;;6.43;4.97;;;;;;;;;;5037915;28;20084;-67
2022/09/08 09:08:48;;;;;;;6.93;4.70;;;;;;;;;;5030860;28;20037;-66
2022/09/08 09:11:44;;;;;;;6.10;3.63;;;;;;;;;;5043703;28;20119;-67
2022/09/08 09:14:35;;;;;;;6.07;4.03;;;;;;;;;;5065389;28;20455;-67
2022/09/08 09:17:22;;;;;;;6.35;3.20;;;;;;;;;;5042613;28;20465;-67
2022/09/08 09:20:16;;;;;;;5.55;3.25;;;;;;;;;;5045154;28;20045;-66
2022/09/08 09:23:11;;;;;;;5.95;3.05;;;;;;;;;;5040574;28;20112;-67
2022/09/08 09:26:00;;;;;;;4.95;3.05;;;;;;;;;;5046922;28;20544;-68
2022/09/08 09:28:54;;;;;;;6.95;3.40;;;;;;;;;;5043478;28;20046;-66
2022/09/08 09:31:48;;;;;;;8.30;3.90;;;;;;;;;;5037110;28;20132;-67
2022/09/08 09:34:49;;;;;;;5.50;3.00;;;;;;;;;;5045730;28;20431;-68
2022/09/08 09:37:52;;;;;;;6.05;2.95;;;;;;;;;;5037708;28;20051;-67
2022/09/08 09:41:00;;;;;;;5.35;2.97;;;;;;;;;;5069548;28;20124;-67
2022/09/08 09:43:47;;;;;;;4.70;2.60;;;;;;;;;;5041021;28;20388;-67
2022/09/08 09:46:35;;;;;;;4.93;2.60;;;;;;;;;;5040175;28;20660;-67
2022/09/08 09:49:37;;;;;;;2.80;2.33;;;;;;;;;;5028013;28;20053;-67
2022/09/08 09:52:31;;;;;;;2.67;2.22;;;;;;;;;;5029860;28;20034;-66
2022/09/08 09:55:24;;;;;;;3.42;2.10;;;;;;;;;;5036896;28;20029;-67
2022/09/08 09:58:15;;;;;;;9.48;2.22;;;;;;;;;;5044740;28;20111;-65
2022/09/08 10:00:59;;;;;;;5.00;2.10;;;;;;;;;;5049616;28;20086;-66
2022/09/08 10:03:49;;;;;;;3.17;1.90;;;;;;;;;;5052897;28;20057;-67
2022/09/08 10:06:50;;;;;;;3.42;1.70;;;;;;;;;;5041082;28;20041;-65
2022/09/08 10:09:46;;;;;;;5.45;2.08;;;;;;;;;;5043584;28;20542;-66
2022/09/08 10:12:39;;;;;;;2.92;1.88;;;;;;;;;;5044422;28;20040;-65
2022/09/08 10:15:32;;;;;;;4.78;2.00;;;;;;;;;;5044851;28;20041;-64
2022/09/08 10:18:30;;;;;;;4.30;2.17;;;;;;;;;;5034488;28;20042;-65
2022/09/08 10:21:21;;;;;;;3.90;2.00;;;;;;;;;;5038773;28;20064;-66
2022/09/08 10:24:29;;;;;;;5.68;2.00;;;;;;;;;;5042227;28;20044;-66
2022/09/08 10:27:26;;;;;;;4.57;2.20;;;;;;;;;;5044190;28;20124;-67
2022/09/08 10:30:29;;;;;;;5.60;2.50;;;;;;;;;;5041810;28;20040;-67
2022/09/08 10:33:13;;;;;;;6.90;2.53;;;;;;;;;;5041162;28;20165;-70
2022/09/08 10:36:01;;;;;;;5.40;2.00;;;;;;;;;;5041330;28;20036;-65
2022/09/08 10:38:48;;;;;;;3.38;1.75;;;;;;;;;;5041938;28;20068;-67
2022/09/08 10:41:52;;;;;;;5.78;1.70;;;;;;;;;;5042344;28;20044;-69
2022/09/08 10:44:41;;;;;;;3.70;1.77;;;;;;;;;;5043832;28;20051;-68
2022/09/08 10:47:25;;;;;;;3.42;1.90;;;;;;;;;;5047005;28;20159;-67
2022/09/08 10:50:28;;;;;;;3.35;1.60;;;;;;;;;;5044499;28;20153;-66
2022/09/08 10:53:15;;;;;;;3.50;1.90;;;;;;;;;;5032203;28;20145;-67
2022/09/08 10:56:13;;;;;;;5.65;2.15;;;;;;;;;;5039574;28;20047;-68
2022/09/08 10:59:07;;;;;;;5.47;2.22;;;;;;;;;;5043466;28;20045;-67
2022/09/08 11:02:10;;;;;;;5.43;1.50;;;;;;;;;;5075660;28;20393;-67
2022/09/08 11:05:06;;;;;;;2.35;1.48;;;;;;;;;;5046055;28;20055;-68
2022/09/08 11:08:03;;;;;;;4.93;1.50;;;;;;;;;;5048174;28;20106;-67
2022/09/08 11:10:47;;;;;;;6.13;1.48;;;;;;;;;;5048772;28;20468;-67
2022/09/08 11:13:34;;;;;;;6.80;1.70;;;;;;;;;;5046157;28;20110;-68
2022/09/08 11:16:25;;;;;;;4.57;1.40;;;;;;;;;;5041915;28;20127;-67
2022/09/08 11:19:09;;;;;;;;;;;;;;;;;;5041441;28;20502;-64
2022/09/08 11:22:09;;;;;;;3.92;1.60;;;;;;;;;;5045183;28;19920;-66
2022/09/08 11:25:10;;;;;;;2.78;1.30;;;;;;;;;;5041081;28;20041;-69
2022/09/08 11:28:04;;;;;;;4.10;1.20;;;;;;;;;;5066302;28;20099;-67
2022/09/08 11:30:55;;;;;;;4.97;1.40;;;;;;;;;;5042932;28;20134;-68
2022/09/08 11:33:58;;;;;;;2.55;1.58;;;;;;;;;;5035804;28;20068;-71
2022/09/08 11:36:45;;;;;;;4.55;1.58;;;;;;;;;;5040596;28;20552;-67
2022/09/08 11:39:45;;;;;;;5.30;1.58;;;;;;;;;;5044646;28;20890;-67
2022/09/08 11:42:42;;;;;;;3.93;1.63;;;;;;;;;;5044284;28;20041;-64
2022/09/08 11:45:26;;;;;;;6.40;1.42;;;;;;;;;;5051479;28;20287;-66
2022/09/08 11:48:23;;;;;;;4.40;1.45;;;;;;;;;;5047830;28;20114;-66
2022/09/08 11:51:09;;;;;;;6.97;1.50;;;;;;;;;;5040239;28;20492;-65
2022/09/08 11:53:57;;;;;;;3.13;1.70;;;;;;;;;;5046675;28;20116;-65
2022/09/08 11:56:57;;;;;;;5.38;1.67;;;;;;;;;;5047172;28;20041;-65
2022/09/08 11:59:49;;;;;;;4.15;1.48;;;;;;;;;;5031929;28;20128;-67
2022/09/08 12:02:48;;;;;;;3.50;1.48;;;;;;;;;;5039661;28;20094;-66
2022/09/08 12:05:48;;;;;;;3.15;1.48;;;;;;;;;;5051185;28;20037;-66
2022/09/08 12:08:51;;;;;;;2.85;1.17;;;;;;;;;;5046266;28;20049;-65
2022/09/08 12:11:54;;;;;;;13.05;1.88;;;;;;;;;;5040565;28;20038;-67
2022/09/08 12:14:38;;;;;;;4.28;1.58;;;;;;;;;;5047413;28;20064;-65
2022/09/08 12:17:42;;;;;;;4.20;1.55;;;;;;;;;;5039786;28;20468;-66
2022/09/08 12:20:46;;;;;;;3.85;1.52;;;;;;;;;;5035582;28;20392;-65
2022/09/08 12:23:52;;;;;;;3.28;1.65;;;;;;;;;;5047125;28;20392;-66
2022/09/08 12:27:15;;;;;;;3.08;1.60;;;;;;;;;;5054870;28;20056;-66
2022/09/08 12:30:00;;;;;;;3.28;1.70;;;;;;;;;;5008004;28;20103;-65
2022/09/08 12:32:44;;;;;;;2.42;1.30;;;;;;;;;;5002921;28;20046;-64
2022/09/08 12:35:30;;;;;;;5.45;1.83;;;;;;;;;;4994327;28;20057;-64
2022/09/08 12:38:33;;;;;;;6.18;1.50;;;;;;;;;;4992489;28;20041;-64
2022/09/08 12:41:23;;;;;;;2.28;1.50;;;;;;;;;;5006993;28;20049;-65
2022/09/08 12:44:15;;;;;;;2.78;1.30;;;;;;;;;;5008836;28;20512;-65
2022/09/08 12:47:07;;;;;;;3.55;1.48;;;;;;;;;;4994882;28;20077;-65
2022/09/08 12:50:14;;;;;;;6.13;1.65;;;;;;;;;;5008329;28;20050;-64
2022/09/08 12:53:11;;;;;;;3.42;1.25;;;;;;;;;;5007497;28;20393;-68
2022/09/08 12:56:03;;;;;;;6.47;1.95;;;;;;;;;;4991032;28;20123;-71
2022/09/08 12:59:03;;;;;;;3.88;1.45;;;;;;;;;;5004408;28;20076;-67
2022/09/08 13:02:11;;;;;;;7.82;1.70;;;;;;;;;;5044857;28;20048;-66
2022/09/08 13:05:05;;;;;;;5.13;1.38;;;;;;;;;;5042632;28;20041;-66
2022/09/08 13:07:58;;;;;;;3.67;1.50;;;;;;;;;;5044030;28;20044;-65
2022/09/08 13:10:48;;;;;;;3.47;1.52;;;;;;;;;;5041101;28;20414;-67
2022/09/08 13:13:43;;;;;;;3.90;1.52;;;;;;;;;;5039653;28;20087;-65
2022/09/08 13:16:36;;;;;;;5.35;2.67;;;;;;;;;;5045459;28;20049;-65
2022/09/08 13:19:25;;;;;;;6.15;2.72;;;;;;;;;;5046915;28;20376;-64
2022/09/08 13:22:23;;;;;;;4.53;3.00;;;;;;;;;;5066038;28;20075;-65
2022/09/08 13:25:14;;;;;;;8.13;3.72;;;;;;;;;;5029668;28;20083;-64
2022/09/08 13:28:18;;;;;;;8.63;3.00;;;;;;;;;;5040138;28;20120;-64
2022/09/08 13:31:02;;;;;;;4.88;3.25;;;;;;;;;;5038229;28;20090;-66
2022/09/08 13:33:53;;;;;;;5.90;3.45;;;;;;;;;;5043811;28;20036;-66
2022/09/08 13:36:57;;;;;;;6.28;3.78;;;;;;;;;;5043501;28;20037;-64
2022/09/08 13:39:54;;;;;;;5.85;3.38;;;;;;;;;;5041548;28;20076;-56
2022/09/08 13:44:24;;;;;;;5.43;3.72;;;;;;;20.31;100.00;98267.84;5106932;27;20479;-63
2022/09/08 13:47:36;;;;;;;8.63;3.97;;;;;;;19.84;100.00;98248.44;5090043;28;20117;-63
2022/09/08 13:50:49;;;;;;;;;;;;;;;19.93;100.00;98292.53;5104069;28;20975;-62
2022/09/08 13:54:05;;;;;;;8.75;3.85;;;;;;;19.77;100.00;98271.38;5106188;28;20015;-66
2022/09/08 13:56:49;;;;;;;7.07;3.60;;;;;;;19.75;100.00;98278.72;5105361;28;20165;-64
2022/09/08 13:59:59;;;;;;;10.13;3.50;;;;;;;19.49;100.00;98290.50;5105973;28;20124;-65
2022/09/08 14:02:52;;;;;;;8.32;3.65;;;;;;;19.47;100.00;98295.97;5103566;28;20070;-64
2022/09/08 14:05:43;;;;;;;4.75;3.70;;;;;;;19.66;100.00;98321.28;5105228;28;20512;-65
2022/09/08 14:08:35;;;;;;;7.88;3.60;;;;;;;19.72;100.00;98337.50;5104789;28;20068;-64
2022/09/08 14:11:35;;;;;;;5.80;3.72;;;;;;;19.80;100.00;98346.25;5105289;28;20146;-64
2022/09/08 14:14:48;;;;;;;5.97;3.78;;;;;;;19.39;100.00;98365.09;5105091;28;20075;-52
2022/09/08 14:18:24;;;;;;;8.02;3.85;;;;;;;19.43;100.00;98363.72;5102177;28;20089;-54
2022/09/08 14:21:27;;;;;;;4.80;2.83;;;;;;;20.03;100.00;98350.81;5073960;28;20075;-50
2022/09/08 14:24:22;;;;;;;6.28;2.88;;;;;;;19.64;100.00;98347.19;5101416;28;20071;-49
2022/09/08 14:27:22;;;;;;;7.13;3.58;;;;;;;19.64;100.00;98343.69;5106670;28;20046;-48
2022/09/08 14:30:23;;;;;;;7.03;3.33;;;;;;;19.97;100.00;98346.16;5105696;28;20039;-51
2022/09/08 14:33:16;;;;;;;6.53;2.90;;;;;;;20.82;100.00;98350.66;5103493;28;20035;-51
2022/09/08 14:36:07;;;;;;;3.63;2.80;;;;;;;21.15;95.47;98344.16;5105476;28;20032;-49
2022/09/08 14:39:23;;;;;;;5.25;3.10;;;;;;;21.13;97.92;98343.53;5103534;28;20119;-50
2022/09/08 14:42:23;;;;;;;3.97;2.72;;;;;;;20.52;100.00;98337.28;5061377;28;20711;-51
2022/09/08 14:45:23;;;;;;;6.43;2.40;;;;;;;20.29;100.00;98343.47;5047301;28;21138;-51
2022/09/08 14:48:16;;;;;;;5.95;2.63;;;;;;;21.06;98.08;98351.41;5061675;28;20357;-52
2022/09/08 14:51:09;;;;;;;5.38;2.35;;;;;;;21.38;97.94;98359.22;5042193;28;20044;-52
2022/09/08 14:54:21;;;;;;;5.80;2.40;;;;;;;21.45;95.19;98348.63;5038091;28;20580;-54
2022/09/08 14:57:24;;;;;;;5.22;2.45;;;;;;;21.80;91.72;98356.03;5030088;28;20061;-59
2022/09/08 15:00:19;;;;;;;4.22;2.58;;;;;;;22.19;99.53;98353.94;5029044;28;20244;-57
2022/09/08 15:03:35;;;;;;;5.22;2.47;;;;;;;21.65;93.75;98346.19;5029857;28;20603;-55
2022/09/08 15:06:35;;;;;;;3.30;2.30;;;;;;;21.45;99.03;98344.13;5027949;28;20178;-59
2022/09/08 15:09:19;;;;;;;4.93;2.38;;;;;;;21.33;94.53;98340.28;5028943;28;20128;-62
2022/09/08 15:12:41;;;;;;;4.43;2.53;;;;;;;20.84;98.54;98337.16;5023976;28;20136;-61
2022/09/08 15:15:30;;;;;;;4.40;2.25;;;;;;;20.57;97.18;98326.94;4933039;29;20043;-61
2022/09/08 15:18:18;;;;;;;4.40;2.42;;;;;;;19.93;100.00;98347.50;4934534;29;20130;-59
2022/09/08 15:21:05;;;;;;;3.72;1.90;;;;;;;19.85;100.00;98350.22;4929782;28;20050;-60
2022/09/08 15:24:26;;;;;;;3.28;2.08;;;;;;;19.45;100.00;98353.75;4989909;28;20049;-61
2022/09/08 15:27:17;;;;;;;4.90;2.05;;;;;;;19.25;100.00;98356.81;4972446;28;20487;-59
2022/09/08 15:30:12;;;;;;;3.15;2.30;;;;;;;18.95;100.00;98365.34;4986856;28;20053;-59
2022/09/08 15:33:09;;;;;;;2.97;2.08;;;;;;;18.78;100.00;98355.75;4974413;28;20133;-58
2022/09/08 15:36:05;;;;;;;4.18;2.10;;;;;;;18.84;100.00;98355.91;4983448;28;20077;-58
2022/09/08 15:39:03;;;;;;;4.25;2.28;;;;;;;18.89;100.00;98358.06;4990320;28;20138;-59
2022/09/08 15:42:06;;;;;;;3.42;2.30;;;;;;;18.84;100.00;98363.88;4989284;28;20062;-64
2022/09/08 15:45:02;;;;;;;2.70;2.00;;;;;;;18.76;100.00;98358.59;4988131;28;20050;-64
2022/09/08 15:48:22;;;;;;;3.28;1.80;;;;;;;18.69;100.00;98366.38;4984727;28;21390;-64
2022/09/08 15:51:37;;;;;;;4.28;2.40;;;;;;;18.62;100.00;98372.53;5011165;28;20051;-64
2022/09/08 15:54:28;;;;;;;4.32;2.67;;;;;;;18.51;100.00;98374.50;5087785;28;20054;-59
2022/09/08 15:57:55;;;;;;;5.47;1.88;;;;;;;18.50;100.00;98387.94;5089622;28;20036;-60
2022/09/08 16:00:49;;;;;;;2.35;1.67;;;;;;;18.27;100.00;98401.84;5089925;28;20058;-60
2022/09/08 16:03:50;;;;;;;2.38;1.50;;;;;;;18.24;100.00;98394.22;5091385;28;20040;-60
2022/09/08 16:06:50;;;;;;;2.22;1.67;;;;;;;18.16;100.00;98395.88;5072007;28;20059;-40
2022/09/08 16:10:09;;;;;;;3.33;1.50;;;;;;;18.55;100.00;98409.50;5087671;28;20038;-55
2022/09/08 16:13:13;;;;;;;4.32;1.70;;;;;;;18.50;100.00;98395.91;5089921;28;20123;-60
2022/09/08 16:16:01;;;;;;;3.08;1.52;;;;;;;18.51;100.00;98403.69;5091580;28;20058;-60
2022/09/08 16:18:54;;;;;;;2.15;1.45;;;;;;;18.74;100.00;98395.06;5089829;28;20040;-60
2022/09/08 16:21:42;;;;;;;1.65;1.20;;;;;;;18.69;100.00;98387.59;5088623;28;20044;-61
2022/09/08 16:24:45;;;;;;;1.33;1.23;;;;;;;18.61;100.00;98402.69;5076085;28;20086;-56